createdAt,value
2023-08-16T00:00:29.073Z,22.00
2023-08-16T00:02:57.538Z,22.25
2023-08-16T00:05:27.102Z,23.75
2023-08-16T00:07:55.061Z,23.75
2023-08-16T00:10:23.182Z,21.75
2023-08-16T00:12:51.237Z,24.00
2023-08-16T00:15:19.445Z,20.25
2023-08-16T00:17:49.016Z,27.00
2023-08-16T00:20:18.440Z,26.25
2023-08-16T00:22:47.887Z,22.75
2023-08-16T00:25:15.873Z,27.00
2023-08-16T00:27:43.986Z,27.75
2023-08-16T00:30:13.106Z,31.00
2023-08-16T00:32:42.574Z,35.00
2023-08-16T00:35:10.773Z,30.50
2023-08-16T00:37:38.830Z,41.00
2023-08-16T00:40:10.172Z,31.75
2023-08-16T00:42:38.139Z,28.25
2023-08-16T00:45:07.311Z,32.75
2023-08-16T00:47:35.512Z,26.75
2023-08-16T00:50:03.660Z,27.25
2023-08-16T00:52:32.062Z,28.25
2023-08-16T00:55:00.464Z,23.00
2023-08-16T00:57:29.855Z,25.50
2023-08-16T00:59:57.983Z,21.50
2023-08-16T01:02:26.007Z,25.50
2023-08-16T01:04:54.009Z,21.25
2023-08-16T01:07:22.316Z,21.50
2023-08-16T01:09:50.656Z,26.00
2023-08-16T01:12:21.589Z,23.25
2023-08-16T01:14:52.795Z,28.50
2023-08-16T01:17:21.540Z,26.25
2023-08-16T01:19:49.762Z,31.00
2023-08-16T01:22:21.350Z,30.50
2023-08-16T01:24:56.833Z,28.00
2023-08-16T01:27:26.214Z,31.75
2023-08-16T01:29:54.930Z,28.75
2023-08-16T01:32:23.635Z,25.00
2023-08-16T01:34:51.611Z,29.25
2023-08-16T01:37:19.694Z,25.00
2023-08-16T01:39:51.036Z,33.75
2023-08-16T01:42:19.382Z,28.50
2023-08-16T01:44:48.888Z,27.75
2023-08-16T01:47:16.840Z,31.75
2023-08-16T01:49:44.846Z,34.75
2023-08-16T01:52:12.966Z,31.25
2023-08-16T01:54:40.979Z,32.50
2023-08-16T01:57:08.968Z,41.25
2023-08-16T01:59:37.081Z,33.00
2023-08-16T02:02:06.640Z,35.75
2023-08-16T02:04:34.700Z,28.25
2023-08-16T02:07:02.812Z,34.75
2023-08-16T02:09:30.791Z,28.00
2023-08-16T02:11:58.814Z,34.75
2023-08-16T02:14:28.097Z,33.00
2023-08-16T02:16:56.114Z,31.25
2023-08-16T02:19:25.653Z,30.75
2023-08-16T02:21:53.768Z,36.75
2023-08-16T02:24:21.815Z,34.00
2023-08-16T02:26:49.813Z,29.00
2023-08-16T02:29:17.917Z,29.50
2023-08-16T02:31:46.011Z,32.00
2023-08-16T02:34:14.071Z,33.25
2023-08-16T02:36:43.497Z,28.50
2023-08-16T02:39:11.601Z,20.00
2023-08-16T02:41:40.060Z,28.25
2023-08-16T02:44:08.317Z,31.25
2023-08-16T02:46:36.379Z,30.75
2023-08-16T02:49:04.446Z,21.75
2023-08-16T02:51:32.464Z,36.75
2023-08-16T02:54:01.869Z,30.75
2023-08-16T02:56:29.830Z,33.50
2023-08-16T02:58:57.871Z,42.75
2023-08-16T03:01:25.921Z,36.50
2023-08-16T03:03:53.974Z,29.25
2023-08-16T03:06:21.972Z,29.00
2023-08-16T03:08:49.948Z,31.75
2023-08-16T03:11:19.355Z,33.00
2023-08-16T03:13:47.566Z,32.75
2023-08-16T03:16:15.676Z,30.50
2023-08-16T03:18:43.742Z,26.50
2023-08-16T03:21:11.760Z,27.75
2023-08-16T03:23:39.833Z,25.50
2023-08-16T03:26:07.805Z,29.75
2023-08-16T03:28:37.205Z,26.00
2023-08-16T03:31:09.022Z,31.75
2023-08-16T03:33:37.057Z,31.75
2023-08-16T03:36:05.599Z,33.00
2023-08-16T03:38:33.711Z,38.25
2023-08-16T03:41:01.736Z,26.25
2023-08-16T03:43:32.494Z,31.75
2023-08-16T03:46:01.929Z,30.75
2023-08-16T03:48:30.003Z,30.25
2023-08-16T03:50:57.996Z,35.25
2023-08-16T03:53:26.027Z,33.50
2023-08-16T03:55:57.317Z,34.75
2023-08-16T03:58:25.366Z,32.25
2023-08-16T04:00:53.661Z,45.00
2023-08-16T04:03:23.199Z,44.75
2023-08-16T04:05:51.263Z,40.75
2023-08-16T04:08:19.394Z,49.00
2023-08-16T04:10:47.441Z,38.00
2023-08-16T04:13:15.456Z,37.75
2023-08-16T04:15:44.186Z,41.75
2023-08-16T04:18:12.187Z,30.50
2023-08-16T04:20:41.621Z,29.00
2023-08-16T04:23:09.725Z,30.50
2023-08-16T04:25:37.773Z,29.50
2023-08-16T04:28:06.364Z,25.25
2023-08-16T04:30:34.887Z,25.50
2023-08-16T04:33:03.156Z,20.50
2023-08-16T04:35:31.307Z,24.00
2023-08-16T04:38:00.682Z,27.75
2023-08-16T04:40:28.684Z,37.25
2023-08-16T04:42:56.769Z,38.50
2023-08-16T04:45:24.813Z,34.75
2023-08-16T04:47:52.823Z,38.25
2023-08-16T04:50:20.881Z,36.00
2023-08-16T04:52:49.003Z,40.75
2023-08-16T04:55:18.692Z,36.25
2023-08-16T04:57:46.682Z,41.00
2023-08-16T05:00:15.308Z,36.25
2023-08-16T05:02:43.303Z,31.75
2023-08-16T05:05:11.357Z,44.75
2023-08-16T05:07:39.523Z,38.00
2023-08-16T05:10:08.301Z,37.75
2023-08-16T05:12:37.634Z,33.00
2023-08-16T05:15:06.396Z,37.00
2023-08-16T05:17:47.858Z,35.00
2023-08-16T05:20:34.737Z,33.00
2023-08-16T05:23:02.753Z,42.25
2023-08-16T05:25:30.966Z,32.25
2023-08-16T05:28:00.735Z,51.50
2023-08-16T05:30:28.812Z,38.75
2023-08-16T05:32:56.986Z,36.50
2023-08-16T05:35:25.189Z,38.50
2023-08-16T05:37:53.429Z,38.00
2023-08-16T05:40:22.064Z,33.50
2023-08-16T05:42:50.022Z,30.50
2023-08-16T05:45:22.456Z,31.25
2023-08-16T05:47:50.583Z,37.75
2023-08-16T05:50:18.830Z,34.00
2023-08-16T05:52:46.965Z,37.25
2023-08-16T05:55:16.610Z,36.00
2023-08-16T05:57:46.247Z,36.25
2023-08-16T06:00:15.328Z,36.50
2023-08-16T06:02:44.709Z,33.25
2023-08-16T06:05:12.710Z,32.00
2023-08-16T06:07:40.743Z,28.75
2023-08-16T06:10:09.678Z,36.75
2023-08-16T06:12:38.597Z,36.00
2023-08-16T06:15:12.698Z,46.25
2023-08-16T06:17:40.847Z,29.00
2023-08-16T06:20:11.079Z,36.00
2023-08-16T06:22:42.100Z,39.25
2023-08-16T06:25:10.529Z,31.75
2023-08-16T06:27:38.568Z,35.25
2023-08-16T06:30:08.470Z,35.00
2023-08-16T06:32:37.162Z,29.00
2023-08-16T06:35:09.998Z,34.50
2023-08-16T06:37:40.311Z,36.50
2023-08-16T06:40:10.629Z,41.25
2023-08-16T06:42:38.911Z,38.75
2023-08-16T06:45:07.915Z,38.00
2023-08-16T06:47:35.968Z,39.75
2023-08-16T06:50:05.761Z,51.75
2023-08-16T06:52:33.868Z,40.50
2023-08-16T06:55:03.527Z,39.25
2023-08-16T06:57:31.621Z,49.75
2023-08-16T06:59:59.769Z,42.75
2023-08-16T07:02:30.781Z,38.00
2023-08-16T07:04:59.526Z,33.00
2023-08-16T07:07:27.604Z,35.75
2023-08-16T07:09:57.498Z,38.00
2023-08-16T07:12:29.346Z,37.00
2023-08-16T07:14:57.480Z,45.25
2023-08-16T07:17:25.540Z,32.25
2023-08-16T07:19:53.719Z,39.50
2023-08-16T07:22:26.144Z,35.50
2023-08-16T07:24:54.403Z,35.00
2023-08-16T07:27:22.530Z,46.50
2023-08-16T07:29:52.128Z,45.00
2023-08-16T07:32:20.141Z,45.75
2023-08-16T07:34:48.208Z,49.50
2023-08-16T07:37:16.829Z,38.50
2023-08-16T07:39:44.922Z,47.75
2023-08-16T07:42:13.078Z,31.00
2023-08-16T07:44:41.061Z,32.00
2023-08-16T07:47:12.318Z,37.50
2023-08-16T07:49:45.837Z,54.25
2023-08-16T07:52:19.241Z,50.00
2023-08-16T07:54:48.044Z,43.25
2023-08-16T07:57:16.056Z,42.25
2023-08-16T07:59:44.150Z,50.25
2023-08-16T08:02:13.586Z,53.00
2023-08-16T08:04:41.646Z,42.75
2023-08-16T08:07:13.978Z,47.50
2023-08-16T08:09:45.935Z,37.00
2023-08-16T08:12:14.298Z,48.25
2023-08-16T08:14:42.297Z,43.00
2023-08-16T08:17:10.298Z,51.25
2023-08-16T08:19:39.681Z,36.25
2023-08-16T08:22:07.651Z,43.00
2023-08-16T08:24:35.923Z,42.00
2023-08-16T08:27:04.279Z,50.00
2023-08-16T08:29:32.400Z,34.50
2023-08-16T08:32:00.505Z,45.50
2023-08-16T08:34:28.782Z,47.00
2023-08-16T08:36:59.139Z,45.25
2023-08-16T08:39:29.972Z,45.25
2023-08-16T08:41:58.195Z,47.25
2023-08-16T08:44:26.240Z,46.75
2023-08-16T08:47:02.948Z,46.00
2023-08-16T08:49:35.299Z,39.75
2023-08-16T08:52:06.099Z,47.75
2023-08-16T08:54:34.292Z,36.75
2023-08-16T08:57:06.008Z,45.75
2023-08-16T08:59:41.587Z,46.50
2023-08-16T09:02:09.940Z,50.00
2023-08-16T09:04:37.972Z,50.75
2023-08-16T09:07:07.521Z,63.00
2023-08-16T09:09:35.542Z,64.25
2023-08-16T09:12:03.851Z,45.25
2023-08-16T09:14:32.304Z,45.75
2023-08-16T09:17:00.513Z,56.00
2023-08-16T09:19:28.600Z,35.50
2023-08-16T09:21:58.742Z,43.25
2023-08-16T09:24:29.290Z,37.25
2023-08-16T09:27:01.483Z,38.00
2023-08-16T09:29:31.637Z,46.25
2023-08-16T09:31:59.977Z,43.00
2023-08-16T09:36:59.024Z,38.50
2023-08-16T09:39:29.114Z,43.25
2023-08-16T09:41:57.211Z,51.00
2023-08-16T09:44:29.811Z,49.00
2023-08-16T09:49:29.850Z,51.75
2023-08-16T09:54:31.019Z,57.00
2023-08-16T10:09:36.579Z,50.00
2023-08-16T10:12:05.519Z,43.33
2023-08-16T10:14:33.614Z,47.50
2023-08-16T10:17:03.725Z,47.50
2023-08-16T10:19:32.485Z,47.75
2023-08-16T10:22:00.546Z,42.50
2023-08-16T10:27:02.470Z,41.75
2023-08-16T10:29:30.492Z,48.00
2023-08-16T10:31:58.869Z,46.25
2023-08-16T10:34:27.883Z,45.50
2023-08-16T10:36:55.888Z,48.25
2023-08-16T10:39:24.292Z,33.25
2023-08-16T10:41:52.537Z,51.25
2023-08-16T10:44:25.321Z,47.25
2023-08-16T10:46:53.490Z,45.50
2023-08-16T10:49:22.114Z,47.50
2023-08-16T10:51:52.264Z,36.50
2023-08-16T10:54:20.442Z,37.50
2023-08-16T10:56:49.868Z,44.25
2023-08-16T10:59:17.986Z,39.75
2023-08-16T11:01:48.250Z,32.50
2023-08-16T11:04:16.379Z,34.50
2023-08-16T11:06:55.801Z,36.75
2023-08-16T11:09:30.885Z,40.50
2023-08-16T11:12:03.002Z,34.50
2023-08-16T11:14:31.108Z,39.25
2023-08-16T11:17:00.469Z,42.00
2023-08-16T11:19:28.620Z,47.00
2023-08-16T11:21:58.423Z,39.00
2023-08-16T11:24:26.450Z,36.75
2023-08-16T11:26:54.945Z,34.00
2023-08-16T11:29:22.913Z,34.00
2023-08-16T11:31:51.521Z,35.50
2023-08-16T11:34:20.956Z,37.75
2023-08-16T11:36:49.369Z,35.25
2023-08-16T11:39:17.384Z,36.00
2023-08-16T11:41:45.386Z,44.00
2023-08-16T11:44:13.538Z,39.25
2023-08-16T11:46:42.253Z,41.00
2023-08-16T11:49:10.670Z,37.75
2023-08-16T11:51:41.919Z,49.75
2023-08-16T11:54:10.462Z,36.25
2023-08-16T11:56:41.815Z,46.75
2023-08-16T11:59:09.953Z,39.50
2023-08-16T12:01:40.267Z,41.75
2023-08-16T12:04:09.513Z,41.00
2023-08-16T12:06:47.484Z,37.75
2023-08-16T12:09:18.026Z,44.00
2023-08-16T12:11:46.162Z,49.75
2023-08-16T12:14:14.193Z,34.00
2023-08-16T12:16:42.157Z,35.67
2023-08-16T12:19:11.013Z,41.75
2023-08-16T12:21:42.546Z,36.75
2023-08-16T12:24:12.207Z,36.50
2023-08-16T12:26:40.226Z,37.50
2023-08-16T12:29:08.216Z,41.75
2023-08-16T12:31:36.274Z,49.50
2023-08-16T12:34:04.303Z,42.75
2023-08-16T12:36:32.386Z,38.00
2023-08-16T12:39:00.418Z,45.50
2023-08-16T12:41:30.074Z,42.75
2023-08-16T12:43:58.058Z,43.50
2023-08-16T12:46:26.036Z,41.50
2023-08-16T12:48:55.195Z,40.75
2023-08-16T12:51:23.767Z,44.75
2023-08-16T12:53:52.360Z,33.75
2023-08-16T12:56:21.220Z,36.25
2023-08-16T13:01:22.567Z,43.75
2023-08-16T13:09:02.406Z,33.75
2023-08-16T13:11:35.123Z,34.50
2023-08-16T13:14:08.704Z,29.75
2023-08-16T13:16:45.327Z,32.25
2023-08-16T13:21:54.137Z,34.25
2023-08-16T13:24:38.176Z,29.00
2023-08-16T13:27:17.637Z,33.00
2023-08-16T13:37:25.470Z,27.80
2023-08-16T13:47:31.413Z,26.75
2023-08-16T13:49:59.415Z,29.20
2023-08-16T13:52:27.615Z,37.00
2023-08-16T13:54:55.928Z,28.00
2023-08-16T13:57:24.125Z,29.25
2023-08-16T13:59:52.235Z,28.00
2023-08-16T14:02:21.777Z,26.40
2023-08-16T14:04:49.813Z,30.25
2023-08-16T14:07:17.801Z,32.50
2023-08-16T14:09:45.796Z,31.00
2023-08-16T14:12:13.838Z,35.00
2023-08-16T14:14:41.868Z,29.00
2023-08-16T14:17:09.935Z,34.75
2023-08-16T14:19:39.420Z,35.75
2023-08-16T14:22:07.510Z,33.25
2023-08-16T14:24:35.611Z,30.25
2023-08-16T14:27:06.271Z,37.00
2023-08-16T14:29:36.663Z,35.00
2023-08-16T14:32:05.236Z,34.25
2023-08-16T14:34:34.131Z,38.75
2023-08-16T14:37:03.535Z,38.75
2023-08-16T14:39:31.708Z,34.20
2023-08-16T14:41:59.769Z,35.25
2023-08-16T14:44:29.770Z,35.50
2023-08-16T14:47:02.171Z,37.75
2023-08-16T14:49:35.296Z,32.75
2023-08-16T14:52:07.223Z,29.50
2023-08-16T14:54:35.495Z,30.00
2023-08-16T14:57:03.508Z,32.75
2023-08-16T14:59:31.640Z,35.50
2023-08-16T15:01:59.723Z,31.00
2023-08-16T15:04:27.742Z,35.00
2023-08-16T15:06:55.707Z,31.75
2023-08-16T15:09:26.420Z,26.40
2023-08-16T15:11:54.430Z,33.75
2023-08-16T15:14:22.457Z,32.75
2023-08-16T15:16:51.789Z,33.75
2023-08-16T15:19:21.935Z,36.25
2023-08-16T15:21:49.993Z,28.75
2023-08-16T15:24:18.134Z,23.75
2023-08-16T15:26:47.651Z,25.25
2023-08-16T15:29:15.663Z,23.25
2023-08-16T15:31:43.691Z,25.00
2023-08-16T15:34:12.047Z,27.00
2023-08-16T15:36:40.332Z,20.50
2023-08-16T15:39:08.549Z,25.40
2023-08-16T15:41:36.506Z,28.75
2023-08-16T15:44:06.218Z,23.40
2023-08-16T15:46:34.348Z,26.75
2023-08-16T15:49:02.394Z,27.50
2023-08-16T15:51:30.398Z,21.00
2023-08-16T15:53:58.435Z,26.60
2023-08-16T15:56:31.404Z,26.80
2023-08-16T15:59:04.572Z,26.50
2023-08-16T16:01:34.823Z,25.25
2023-08-16T16:04:02.860Z,25.40
2023-08-16T16:06:31.157Z,21.20
2023-08-16T16:08:59.103Z,25.40
2023-08-16T16:11:29.488Z,29.00
2023-08-16T16:14:01.536Z,29.00
2023-08-16T16:16:29.616Z,16.20
2023-08-16T16:18:59.084Z,24.00
2023-08-16T16:21:27.882Z,20.40
2023-08-16T16:23:55.950Z,23.60
2023-08-16T16:26:23.913Z,22.20
2023-08-16T16:28:52.016Z,21.20
2023-08-16T16:31:21.633Z,19.80
2023-08-16T16:33:51.680Z,22.00
2023-08-16T16:36:29.680Z,22.00
2023-08-16T16:38:57.822Z,22.20
2023-08-16T16:41:25.782Z,23.20
2023-08-16T16:43:53.777Z,22.60
2023-08-16T16:46:22.058Z,19.80
2023-08-16T16:48:51.005Z,22.00
2023-08-16T16:51:19.133Z,20.25
2023-08-16T16:53:48.591Z,25.00
2023-08-16T16:56:19.753Z,16.50
2023-08-16T16:58:48.077Z,20.50
2023-08-16T17:01:16.102Z,15.50
2023-08-16T17:03:44.108Z,21.75
2023-08-16T17:06:12.240Z,23.50
2023-08-16T17:08:41.315Z,16.75
2023-08-16T17:11:10.733Z,21.75
2023-08-16T17:13:40.659Z,22.75
2023-08-16T17:16:14.765Z,14.00
2023-08-16T17:18:42.817Z,22.25
2023-08-16T17:21:15.921Z,20.25
2023-08-16T17:23:44.179Z,23.25
2023-08-16T17:26:13.705Z,22.50
2023-08-16T17:28:41.886Z,19.25
2023-08-16T17:31:12.176Z,17.50
2023-08-16T17:33:40.267Z,20.25
2023-08-16T17:36:13.324Z,21.75
2023-08-16T17:38:44.150Z,22.00
2023-08-16T17:41:17.223Z,17.25
2023-08-16T17:43:45.709Z,17.75
2023-08-16T17:46:13.715Z,19.50
2023-08-16T17:48:42.427Z,16.75
2023-08-16T17:51:10.424Z,16.00
2023-08-16T17:53:38.439Z,21.00
2023-08-16T17:56:06.798Z,18.00
2023-08-16T17:58:36.582Z,18.50
2023-08-16T18:01:06.436Z,11.50
2023-08-16T18:03:34.745Z,21.00
2023-08-16T18:06:04.151Z,22.25
2023-08-16T18:08:32.232Z,20.00
2023-08-16T18:11:00.273Z,16.75
2023-08-16T18:13:28.234Z,14.75
2023-08-16T18:15:57.627Z,20.00
2023-08-16T18:18:27.070Z,18.25
2023-08-16T18:20:55.568Z,19.00
2023-08-16T18:23:23.740Z,17.25
2023-08-16T18:25:51.936Z,21.75
2023-08-16T18:28:20.770Z,17.25
2023-08-16T18:30:50.124Z,18.25
2023-08-16T18:33:22.655Z,19.75
2023-08-16T18:35:50.640Z,16.00
2023-08-16T18:38:18.744Z,14.25
2023-08-16T18:40:46.778Z,20.50
2023-08-16T18:43:14.870Z,15.50
2023-08-16T18:45:46.777Z,16.50
2023-08-16T18:48:15.000Z,20.25
2023-08-16T18:50:45.961Z,16.75
2023-08-16T18:53:13.920Z,22.00
2023-08-16T18:55:42.856Z,24.25
2023-08-16T18:58:31.838Z,15.75
2023-08-16T19:01:01.530Z,22.75
2023-08-16T19:03:29.565Z,19.25
2023-08-16T19:05:59.165Z,17.25
2023-08-16T19:08:27.203Z,18.50
2023-08-16T19:10:55.153Z,16.25
2023-08-16T19:13:24.330Z,17.50
2023-08-16T19:15:52.837Z,20.25
2023-08-16T19:18:20.771Z,19.00
2023-08-16T19:20:48.987Z,14.50
2023-08-16T19:23:18.455Z,21.25
2023-08-16T19:25:46.440Z,15.50
2023-08-16T19:28:14.496Z,18.75
2023-08-16T19:30:43.023Z,20.50
2023-08-16T19:33:11.089Z,19.75
2023-08-16T19:35:39.253Z,12.00
2023-08-16T19:38:07.318Z,19.00
2023-08-16T19:40:36.712Z,21.00
2023-08-16T19:43:07.145Z,16.75
2023-08-16T19:45:38.805Z,15.25
2023-08-16T19:48:07.597Z,19.50
2023-08-16T19:50:35.807Z,18.75
2023-08-16T19:53:03.829Z,19.00
2023-08-16T19:55:31.809Z,20.00
2023-08-16T19:58:01.233Z,20.50
2023-08-16T20:00:30.770Z,14.00
2023-08-16T20:02:59.005Z,16.75
2023-08-16T20:05:27.098Z,23.00
2023-08-16T20:07:55.214Z,21.00
2023-08-16T20:10:23.288Z,12.50
2023-08-16T20:12:51.356Z,18.25
2023-08-16T20:15:21.036Z,22.75
2023-08-16T20:17:49.162Z,20.25
2023-08-16T20:20:17.498Z,18.50
2023-08-16T20:22:47.279Z,19.50
2023-08-16T20:25:17.454Z,20.50
2023-08-16T20:27:45.439Z,14.50
2023-08-16T20:30:14.300Z,17.00
2023-08-16T20:32:43.710Z,19.75
2023-08-16T20:35:11.775Z,19.00
2023-08-16T20:37:40.859Z,19.00
2023-08-16T20:40:10.054Z,17.75
2023-08-16T20:42:39.326Z,20.75
2023-08-16T20:45:08.927Z,22.75
2023-08-16T20:47:37.302Z,18.50
2023-08-16T20:50:07.600Z,16.00
2023-08-16T20:52:39.554Z,19.75
2023-08-16T20:55:10.956Z,18.00
2023-08-16T20:57:39.051Z,17.75
2023-08-16T21:00:08.306Z,16.00
2023-08-16T21:02:36.397Z,19.00
2023-08-16T21:05:04.575Z,18.50
2023-08-16T21:07:34.075Z,17.75
2023-08-16T21:10:02.084Z,22.50
2023-08-16T21:12:30.106Z,19.00
2023-08-16T21:14:58.056Z,21.75
2023-08-16T21:17:26.292Z,19.00
2023-08-16T21:19:54.690Z,20.50
2023-08-16T21:22:22.716Z,21.25
2023-08-16T21:24:53.311Z,18.25
2023-08-16T21:27:21.365Z,21.25
2023-08-16T21:29:49.387Z,19.75
2023-08-16T21:32:17.522Z,19.50
2023-08-16T21:34:45.632Z,18.75
2023-08-16T21:37:13.718Z,17.75
2023-08-16T21:39:41.720Z,17.25
2023-08-16T21:42:11.089Z,21.75
2023-08-16T21:44:39.108Z,19.00
2023-08-16T21:47:07.123Z,18.75
2023-08-16T21:49:35.167Z,14.25
2023-08-16T21:52:03.190Z,16.00
2023-08-16T21:54:31.220Z,13.00
2023-08-16T21:56:59.246Z,19.25
2023-08-16T21:59:28.629Z,17.00
2023-08-16T22:01:56.653Z,18.25
2023-08-16T22:04:24.734Z,16.75
2023-08-16T22:06:52.711Z,16.75
2023-08-16T22:09:20.753Z,15.25
2023-08-16T22:11:48.957Z,17.25
2023-08-16T22:14:17.138Z,11.00
2023-08-16T22:16:46.576Z,14.50
2023-08-16T22:19:14.756Z,15.25
2023-08-16T22:21:42.725Z,13.75
2023-08-16T22:24:12.116Z,12.25
2023-08-16T22:26:40.405Z,15.50
2023-08-16T22:29:08.498Z,12.00
2023-08-16T22:31:36.576Z,17.25
2023-08-16T22:34:06.167Z,17.25
2023-08-16T22:36:38.797Z,14.50
2023-08-16T22:39:07.886Z,15.00
2023-08-16T22:41:38.708Z,17.50
2023-08-16T22:44:11.317Z,18.25
2023-08-16T22:46:39.525Z,16.75
2023-08-16T22:49:11.021Z,14.50
2023-08-16T22:51:43.876Z,16.50
2023-08-16T22:54:12.138Z,17.00
2023-08-16T22:56:40.128Z,17.50
2023-08-16T22:59:08.181Z,16.25
2023-08-16T23:01:36.153Z,19.00
2023-08-16T23:04:04.508Z,15.00
2023-08-16T23:06:35.530Z,16.75
2023-08-16T23:09:03.633Z,18.75
2023-08-16T23:11:31.688Z,16.50
2023-08-16T23:13:59.740Z,17.00
2023-08-16T23:16:27.824Z,17.00
2023-08-16T23:18:55.821Z,17.75
2023-08-16T23:21:24.047Z,14.75
2023-08-16T23:23:53.497Z,18.25
2023-08-16T23:26:21.509Z,16.00
2023-08-16T23:28:49.572Z,21.50
2023-08-16T23:31:17.632Z,17.50
2023-08-16T23:33:45.665Z,15.25
2023-08-16T23:36:13.621Z,17.75
2023-08-16T23:38:41.696Z,24.00
2023-08-16T23:41:11.515Z,20.75
2023-08-16T23:43:39.504Z,20.00
2023-08-16T23:46:07.874Z,23.00
2023-08-16T23:48:35.992Z,17.75
2023-08-16T23:51:04.180Z,22.25
2023-08-16T23:53:32.162Z,22.50
2023-08-16T23:56:00.253Z,15.50
2023-08-16T23:58:30.536Z,15.50
